sensor_id;sensor_type;location;lat;lon;timestamp;P1;durP1;ratioP1;P2;durP2;ratioP2
41629;SDS011;27322;49.488;8.480;2023-04-25T00:00:22;4.80;;;2.65;;
41629;SDS011;27322;49.488;8.480;2023-04-25T00:02:47;4.28;;;2.63;;
41629;SDS011;27322;49.488;8.480;2023-04-25T00:05:13;5.03;;;2.80;;
41629;SDS011;27322;49.488;8.480;2023-04-25T00:07:40;4.80;;;2.97;;
41629;SDS011;27322;49.488;8.480;2023-04-25T00:10:07;4.28;;;2.78;;
41629;SDS011;27322;49.488;8.480;2023-04-25T00:12:34;6.22;;;3.30;;
41629;SDS011;27322;49.488;8.480;2023-04-25T00:15:00;5.50;;;3.03;;
41629;SDS011;27322;49.488;8.480;2023-04-25T00:17:26;5.00;;;2.90;;
41629;SDS011;27322;49.488;8.480;2023-04-25T00:19:53;5.93;;;3.13;;
41629;SDS011;27322;49.488;8.480;2023-04-25T00:22:18;4.60;;;2.80;;
41629;SDS011;27322;49.488;8.480;2023-04-25T00:24:45;4.70;;;3.10;;
41629;SDS011;27322;49.488;8.480;2023-04-25T00:27:11;4.80;;;3.05;;
41629;SDS011;27322;49.488;8.480;2023-04-25T00:29:36;5.28;;;3.13;;
41629;SDS011;27322;49.488;8.480;2023-04-25T00:32:02;4.70;;;2.90;;
41629;SDS011;27322;49.488;8.480;2023-04-25T00:34:28;4.38;;;2.80;;
41629;SDS011;27322;49.488;8.480;2023-04-25T00:36:53;4.90;;;2.72;;
41629;SDS011;27322;49.488;8.480;2023-04-25T00:39:19;6.03;;;3.28;;
41629;SDS011;27322;49.488;8.480;2023-04-25T00:41:45;5.05;;;2.95;;
41629;SDS011;27322;49.488;8.480;2023-04-25T00:44:10;5.03;;;3.42;;
41629;SDS011;27322;49.488;8.480;2023-04-25T00:46:37;4.70;;;2.63;;
41629;SDS011;27322;49.488;8.480;2023-04-25T00:49:04;4.20;;;2.70;;
41629;SDS011;27322;49.488;8.480;2023-04-25T00:51:30;4.55;;;2.90;;
41629;SDS011;27322;49.488;8.480;2023-04-25T00:53:57;5.35;;;3.08;;
41629;SDS011;27322;49.488;8.480;2023-04-25T00:56:23;6.32;;;3.20;;
41629;SDS011;27322;49.488;8.480;2023-04-25T00:58:49;4.53;;;2.58;;
41629;SDS011;27322;49.488;8.480;2023-04-25T01:01:18;5.55;;;3.00;;
41629;SDS011;27322;49.488;8.480;2023-04-25T01:03:43;4.95;;;2.80;;
41629;SDS011;27322;49.488;8.480;2023-04-25T01:06:11;4.15;;;2.80;;
41629;SDS011;27322;49.488;8.480;2023-04-25T01:08:38;5.45;;;2.95;;
41629;SDS011;27322;49.488;8.480;2023-04-25T01:11:04;4.47;;;2.92;;
41629;SDS011;27322;49.488;8.480;2023-04-25T01:13:30;5.00;;;2.83;;
41629;SDS011;27322;49.488;8.480;2023-04-25T01:15:58;4.50;;;2.60;;
41629;SDS011;27322;49.488;8.480;2023-04-25T01:18:24;4.50;;;2.70;;
41629;SDS011;27322;49.488;8.480;2023-04-25T01:20:52;5.82;;;3.10;;
41629;SDS011;27322;49.488;8.480;2023-04-25T01:23:19;4.95;;;3.13;;
41629;SDS011;27322;49.488;8.480;2023-04-25T01:25:45;5.40;;;3.22;;
41629;SDS011;27322;49.488;8.480;2023-04-25T01:28:12;4.57;;;3.28;;
41629;SDS011;27322;49.488;8.480;2023-04-25T01:30:38;4.95;;;2.97;;
41629;SDS011;27322;49.488;8.480;2023-04-25T01:33:04;5.32;;;2.95;;
41629;SDS011;27322;49.488;8.480;2023-04-25T01:35:30;5.20;;;3.30;;
41629;SDS011;27322;49.488;8.480;2023-04-25T01:37:57;5.40;;;3.63;;
41629;SDS011;27322;49.488;8.480;2023-04-25T01:40:22;5.85;;;3.45;;
41629;SDS011;27322;49.488;8.480;2023-04-25T01:42:50;6.07;;;3.50;;
41629;SDS011;27322;49.488;8.480;2023-04-25T01:45:16;5.50;;;3.60;;
41629;SDS011;27322;49.488;8.480;2023-04-25T01:47:42;5.43;;;3.42;;
41629;SDS011;27322;49.488;8.480;2023-04-25T01:50:09;5.82;;;3.92;;
41629;SDS011;27322;49.488;8.480;2023-04-25T01:52:36;7.70;;;5.03;;
41629;SDS011;27322;49.488;8.480;2023-04-25T01:55:02;8.63;;;5.13;;
41629;SDS011;27322;49.488;8.480;2023-04-25T01:57:27;8.15;;;5.30;;
41629;SDS011;27322;49.488;8.480;2023-04-25T02:00:01;9.07;;;5.45;;
41629;SDS011;27322;49.488;8.480;2023-04-25T02:02:30;9.20;;;6.20;;
41629;SDS011;27322;49.488;8.480;2023-04-25T02:04:55;10.38;;;6.68;;
41629;SDS011;27322;49.488;8.480;2023-04-25T02:07:21;9.00;;;5.95;;
41629;SDS011;27322;49.488;8.480;2023-04-25T02:09:47;9.68;;;6.47;;
41629;SDS011;27322;49.488;8.480;2023-04-25T02:12:12;9.07;;;6.22;;
41629;SDS011;27322;49.488;8.480;2023-04-25T02:14:38;9.98;;;6.30;;
41629;SDS011;27322;49.488;8.480;2023-04-25T02:17:03;9.60;;;6.47;;
41629;SDS011;27322;49.488;8.480;2023-04-25T02:19:30;9.90;;;6.78;;
41629;SDS011;27322;49.488;8.480;2023-04-25T02:21:56;10.32;;;6.80;;
41629;SDS011;27322;49.488;8.480;2023-04-25T02:24:22;9.98;;;7.22;;
41629;SDS011;27322;49.488;8.480;2023-04-25T02:26:47;10.07;;;6.97;;
41629;SDS011;27322;49.488;8.480;2023-04-25T02:29:14;10.15;;;6.82;;
41629;SDS011;27322;49.488;8.480;2023-04-25T02:31:40;9.95;;;6.40;;
41629;SDS011;27322;49.488;8.480;2023-04-25T02:34:05;10.65;;;7.07;;
41629;SDS011;27322;49.488;8.480;2023-04-25T02:36:31;10.55;;;7.18;;
41629;SDS011;27322;49.488;8.480;2023-04-25T02:38:59;10.80;;;6.95;;
41629;SDS011;27322;49.488;8.480;2023-04-25T02:41:25;10.60;;;7.30;;
41629;SDS011;27322;49.488;8.480;2023-04-25T02:43:51;10.40;;;7.15;;
41629;SDS011;27322;49.488;8.480;2023-04-25T02:46:17;10.30;;;7.03;;
41629;SDS011;27322;49.488;8.480;2023-04-25T02:48:42;10.30;;;7.50;;
41629;SDS011;27322;49.488;8.480;2023-04-25T02:51:08;9.95;;;7.22;;
41629;SDS011;27322;49.488;8.480;2023-04-25T02:53:34;9.35;;;6.82;;
41629;SDS011;27322;49.488;8.480;2023-04-25T02:56:00;10.48;;;7.60;;
41629;SDS011;27322;49.488;8.480;2023-04-25T02:58:26;10.00;;;7.28;;
41629;SDS011;27322;49.488;8.480;2023-04-25T03:00:52;11.02;;;7.25;;
41629;SDS011;27322;49.488;8.480;2023-04-25T03:03:17;9.85;;;6.68;;
41629;SDS011;27322;49.488;8.480;2023-04-25T03:05:46;10.45;;;7.28;;
41629;SDS011;27322;49.488;8.480;2023-04-25T03:08:13;9.88;;;7.03;;
41629;SDS011;27322;49.488;8.480;2023-04-25T03:10:39;11.63;;;7.53;;
41629;SDS011;27322;49.488;8.480;2023-04-25T03:13:05;11.35;;;7.20;;
41629;SDS011;27322;49.488;8.480;2023-04-25T03:15:30;10.95;;;7.50;;
41629;SDS011;27322;49.488;8.480;2023-04-25T03:17:56;10.55;;;6.97;;
41629;SDS011;27322;49.488;8.480;2023-04-25T03:20:21;10.45;;;7.35;;
41629;SDS011;27322;49.488;8.480;2023-04-25T03:22:47;10.07;;;7.20;;
41629;SDS011;27322;49.488;8.480;2023-04-25T03:25:13;13.43;;;8.40;;
41629;SDS011;27322;49.488;8.480;2023-04-25T03:27:38;10.82;;;7.82;;
41629;SDS011;27322;49.488;8.480;2023-04-25T03:30:04;11.43;;;8.18;;
41629;SDS011;27322;49.488;8.480;2023-04-25T03:32:31;11.65;;;7.88;;
41629;SDS011;27322;49.488;8.480;2023-04-25T03:34:57;10.27;;;7.63;;
41629;SDS011;27322;49.488;8.480;2023-04-25T03:37:22;12.00;;;7.82;;
41629;SDS011;27322;49.488;8.480;2023-04-25T03:39:48;10.45;;;7.88;;
41629;SDS011;27322;49.488;8.480;2023-04-25T03:42:13;12.40;;;8.05;;
41629;SDS011;27322;49.488;8.480;2023-04-25T03:44:39;10.68;;;7.90;;
41629;SDS011;27322;49.488;8.480;2023-04-25T03:47:04;11.38;;;7.97;;
41629;SDS011;27322;49.488;8.480;2023-04-25T03:49:31;9.90;;;6.80;;
41629;SDS011;27322;49.488;8.480;2023-04-25T03:51:57;9.95;;;7.20;;
41629;SDS011;27322;49.488;8.480;2023-04-25T03:54:23;10.70;;;7.30;;
41629;SDS011;27322;49.488;8.480;2023-04-25T03:56:48;11.70;;;7.43;;
41629;SDS011;27322;49.488;8.480;2023-04-25T03:59:14;10.30;;;7.05;;
41629;SDS011;27322;49.488;8.480;2023-04-25T04:01:40;10.32;;;7.35;;
41629;SDS011;27322;49.488;8.480;2023-04-25T04:04:05;10.38;;;7.35;;
41629;SDS011;27322;49.488;8.480;2023-04-25T04:06:31;10.82;;;7.63;;
41629;SDS011;27322;49.488;8.480;2023-04-25T04:08:57;10.98;;;7.95;;
41629;SDS011;27322;49.488;8.480;2023-04-25T04:11:22;11.30;;;7.55;;
41629;SDS011;27322;49.488;8.480;2023-04-25T04:13:48;10.70;;;7.30;;
41629;SDS011;27322;49.488;8.480;2023-04-25T04:16:13;11.18;;;7.80;;
41629;SDS011;27322;49.488;8.480;2023-04-25T04:18:39;10.38;;;6.93;;
41629;SDS011;27322;49.488;8.480;2023-04-25T04:21:04;11.80;;;7.20;;
41629;SDS011;27322;49.488;8.480;2023-04-25T04:23:30;11.85;;;7.75;;
41629;SDS011;27322;49.488;8.480;2023-04-25T04:25:56;10.95;;;7.43;;
41629;SDS011;27322;49.488;8.480;2023-04-25T04:28:22;10.27;;;7.25;;
41629;SDS011;27322;49.488;8.480;2023-04-25T04:30:48;10.30;;;7.43;;
41629;SDS011;27322;49.488;8.480;2023-04-25T04:33:16;11.05;;;7.80;;
41629;SDS011;27322;49.488;8.480;2023-04-25T04:35:43;11.15;;;7.60;;
41629;SDS011;27322;49.488;8.480;2023-04-25T04:38:09;11.73;;;7.63;;
41629;SDS011;27322;49.488;8.480;2023-04-25T04:40:36;12.07;;;7.53;;
41629;SDS011;27322;49.488;8.480;2023-04-25T04:43:02;10.50;;;7.47;;
41629;SDS011;27322;49.488;8.480;2023-04-25T04:45:28;10.98;;;7.20;;
41629;SDS011;27322;49.488;8.480;2023-04-25T04:47:54;10.30;;;7.65;;
41629;SDS011;27322;49.488;8.480;2023-04-25T04:50:20;11.43;;;8.35;;
41629;SDS011;27322;49.488;8.480;2023-04-25T04:52:46;13.20;;;8.32;;
41629;SDS011;27322;49.488;8.480;2023-04-25T04:55:11;13.35;;;8.15;;
41629;SDS011;27322;49.488;8.480;2023-04-25T04:57:37;12.15;;;8.65;;
41629;SDS011;27322;49.488;8.480;2023-04-25T05:00:03;20.98;;;8.77;;
41629;SDS011;27322;49.488;8.480;2023-04-25T05:02:33;11.95;;;8.50;;
41629;SDS011;27322;49.488;8.480;2023-04-25T05:04:58;12.38;;;8.15;;
41629;SDS011;27322;49.488;8.480;2023-04-25T05:07:24;12.52;;;8.43;;
41629;SDS011;27322;49.488;8.480;2023-04-25T05:09:50;12.50;;;8.70;;
41629;SDS011;27322;49.488;8.480;2023-04-25T05:12:16;11.25;;;8.18;;
41629;SDS011;27322;49.488;8.480;2023-04-25T05:14:41;12.25;;;8.40;;
41629;SDS011;27322;49.488;8.480;2023-04-25T05:17:07;12.05;;;8.40;;
41629;SDS011;27322;49.488;8.480;2023-04-25T05:19:33;13.15;;;9.30;;
41629;SDS011;27322;49.488;8.480;2023-04-25T05:21:59;13.35;;;8.95;;
41629;SDS011;27322;49.488;8.480;2023-04-25T05:24:24;12.35;;;8.85;;
41629;SDS011;27322;49.488;8.480;2023-04-25T05:26:50;13.45;;;8.88;;
41629;SDS011;27322;49.488;8.480;2023-04-25T05:29:16;13.60;;;9.48;;
41629;SDS011;27322;49.488;8.480;2023-04-25T05:31:41;13.95;;;9.88;;
41629;SDS011;27322;49.488;8.480;2023-04-25T05:34:07;17.83;;;10.63;;
41629;SDS011;27322;49.488;8.480;2023-04-25T05:36:32;16.17;;;10.45;;
41629;SDS011;27322;49.488;8.480;2023-04-25T05:38:58;16.02;;;10.10;;
41629;SDS011;27322;49.488;8.480;2023-04-25T05:41:23;13.57;;;8.98;;
41629;SDS011;27322;49.488;8.480;2023-04-25T05:43:49;14.60;;;9.60;;
41629;SDS011;27322;49.488;8.480;2023-04-25T05:46:15;15.13;;;9.98;;
41629;SDS011;27322;49.488;8.480;2023-04-25T05:48:42;14.50;;;9.73;;
41629;SDS011;27322;49.488;8.480;2023-04-25T05:51:07;13.43;;;9.30;;
41629;SDS011;27322;49.488;8.480;2023-04-25T05:53:33;14.13;;;9.80;;
41629;SDS011;27322;49.488;8.480;2023-04-25T05:55:59;15.30;;;9.90;;
41629;SDS011;27322;49.488;8.480;2023-04-25T05:58:25;15.32;;;9.80;;
41629;SDS011;27322;49.488;8.480;2023-04-25T06:00:50;13.90;;;9.73;;
41629;SDS011;27322;49.488;8.480;2023-04-25T06:03:16;14.25;;;9.80;;
41629;SDS011;27322;49.488;8.480;2023-04-25T06:05:42;13.30;;;9.82;;
41629;SDS011;27322;49.488;8.480;2023-04-25T06:08:08;13.60;;;9.43;;
41629;SDS011;27322;49.488;8.480;2023-04-25T06:10:35;12.90;;;9.05;;
41629;SDS011;27322;49.488;8.480;2023-04-25T06:13:01;11.52;;;8.25;;
41629;SDS011;27322;49.488;8.480;2023-04-25T06:15:27;11.77;;;8.23;;
41629;SDS011;27322;49.488;8.480;2023-04-25T06:17:53;11.20;;;7.45;;
41629;SDS011;27322;49.488;8.480;2023-04-25T06:20:19;12.05;;;7.50;;
41629;SDS011;27322;49.488;8.480;2023-04-25T06:22:48;11.43;;;7.70;;
41629;SDS011;27322;49.488;8.480;2023-04-25T06:25:14;11.00;;;7.05;;
41629;SDS011;27322;49.488;8.480;2023-04-25T06:27:40;11.18;;;7.57;;
41629;SDS011;27322;49.488;8.480;2023-04-25T06:30:05;10.68;;;6.88;;
41629;SDS011;27322;49.488;8.480;2023-04-25T06:32:32;11.20;;;7.32;;
41629;SDS011;27322;49.488;8.480;2023-04-25T06:34:59;10.77;;;7.57;;
41629;SDS011;27322;49.488;8.480;2023-04-25T06:37:25;10.90;;;6.78;;
41629;SDS011;27322;49.488;8.480;2023-04-25T06:39:50;11.98;;;6.63;;
41629;SDS011;27322;49.488;8.480;2023-04-25T06:42:16;12.05;;;6.43;;
41629;SDS011;27322;49.488;8.480;2023-04-25T06:44:41;11.52;;;6.10;;
41629;SDS011;27322;49.488;8.480;2023-04-25T06:47:07;9.43;;;5.88;;
41629;SDS011;27322;49.488;8.480;2023-04-25T06:49:33;13.57;;;5.50;;
41629;SDS011;27322;49.488;8.480;2023-04-25T06:51:58;9.35;;;5.60;;
41629;SDS011;27322;49.488;8.480;2023-04-25T06:54:24;11.90;;;6.32;;
41629;SDS011;27322;49.488;8.480;2023-04-25T06:56:52;10.93;;;6.22;;
41629;SDS011;27322;49.488;8.480;2023-04-25T06:59:18;12.82;;;6.22;;
41629;SDS011;27322;49.488;8.480;2023-04-25T07:01:43;12.93;;;7.72;;
41629;SDS011;27322;49.488;8.480;2023-04-25T07:04:09;14.90;;;6.70;;
41629;SDS011;27322;49.488;8.480;2023-04-25T07:06:35;11.70;;;7.28;;
41629;SDS011;27322;49.488;8.480;2023-04-25T07:09:03;14.60;;;7.35;;
41629;SDS011;27322;49.488;8.480;2023-04-25T07:11:30;13.27;;;7.97;;
41629;SDS011;27322;49.488;8.480;2023-04-25T07:13:55;13.98;;;7.65;;
41629;SDS011;27322;49.488;8.480;2023-04-25T07:16:21;12.85;;;8.30;;
41629;SDS011;27322;49.488;8.480;2023-04-25T07:18:46;15.95;;;7.70;;
41629;SDS011;27322;49.488;8.480;2023-04-25T07:21:12;16.85;;;7.55;;
41629;SDS011;27322;49.488;8.480;2023-04-25T07:23:38;16.13;;;7.65;;
41629;SDS011;27322;49.488;8.480;2023-04-25T07:26:05;14.93;;;6.63;;
41629;SDS011;27322;49.488;8.480;2023-04-25T07:28:31;12.63;;;6.57;;
41629;SDS011;27322;49.488;8.480;2023-04-25T07:30:57;14.50;;;6.45;;
41629;SDS011;27322;49.488;8.480;2023-04-25T07:33:23;16.35;;;6.68;;
41629;SDS011;27322;49.488;8.480;2023-04-25T07:35:48;14.60;;;6.85;;
41629;SDS011;27322;49.488;8.480;2023-04-25T07:38:15;14.82;;;7.20;;
41629;SDS011;27322;49.488;8.480;2023-04-25T07:40:40;13.77;;;7.25;;
41629;SDS011;27322;49.488;8.480;2023-04-25T07:43:06;15.40;;;7.18;;
41629;SDS011;27322;49.488;8.480;2023-04-25T07:45:32;13.60;;;6.88;;
41629;SDS011;27322;49.488;8.480;2023-04-25T07:47:57;16.30;;;6.80;;
41629;SDS011;27322;49.488;8.480;2023-04-25T07:50:23;17.33;;;6.80;;
41629;SDS011;27322;49.488;8.480;2023-04-25T07:52:48;11.13;;;6.40;;
41629;SDS011;27322;49.488;8.480;2023-04-25T07:55:14;12.20;;;6.28;;
41629;SDS011;27322;49.488;8.480;2023-04-25T07:57:40;12.45;;;6.05;;
41629;SDS011;27322;49.488;8.480;2023-04-25T08:00:05;14.05;;;6.65;;
41629;SDS011;27322;49.488;8.480;2023-04-25T08:02:34;14.98;;;6.47;;
41629;SDS011;27322;49.488;8.480;2023-04-25T08:05:00;20.30;;;7.28;;
41629;SDS011;27322;49.488;8.480;2023-04-25T08:07:25;13.20;;;7.03;;
41629;SDS011;27322;49.488;8.480;2023-04-25T08:09:51;17.23;;;7.60;;
41629;SDS011;27322;49.488;8.480;2023-04-25T08:12:17;14.40;;;6.90;;
41629;SDS011;27322;49.488;8.480;2023-04-25T08:14:43;18.30;;;6.45;;
41629;SDS011;27322;49.488;8.480;2023-04-25T08:17:09;16.23;;;7.72;;
41629;SDS011;27322;49.488;8.480;2023-04-25T08:19:35;18.65;;;7.97;;
41629;SDS011;27322;49.488;8.480;2023-04-25T08:22:00;16.73;;;7.18;;
41629;SDS011;27322;49.488;8.480;2023-04-25T08:24:26;14.63;;;7.32;;
41629;SDS011;27322;49.488;8.480;2023-04-25T08:26:52;14.95;;;6.20;;
41629;SDS011;27322;49.488;8.480;2023-04-25T08:29:18;17.83;;;7.65;;
41629;SDS011;27322;49.488;8.480;2023-04-25T08:31:44;16.55;;;7.00;;
41629;SDS011;27322;49.488;8.480;2023-04-25T08:34:10;16.27;;;7.78;;
41629;SDS011;27322;49.488;8.480;2023-04-25T08:36:36;15.32;;;7.47;;
41629;SDS011;27322;49.488;8.480;2023-04-25T08:39:02;15.73;;;7.07;;
41629;SDS011;27322;49.488;8.480;2023-04-25T08:41:27;17.23;;;7.68;;
41629;SDS011;27322;49.488;8.480;2023-04-25T08:43:53;14.75;;;7.10;;
41629;SDS011;27322;49.488;8.480;2023-04-25T08:46:22;15.75;;;6.80;;
41629;SDS011;27322;49.488;8.480;2023-04-25T08:48:48;14.95;;;6.25;;
41629;SDS011;27322;49.488;8.480;2023-04-25T08:51:18;14.80;;;6.53;;
41629;SDS011;27322;49.488;8.480;2023-04-25T08:53:48;13.10;;;6.32;;
41629;SDS011;27322;49.488;8.480;2023-04-25T08:56:15;15.05;;;7.05;;
41629;SDS011;27322;49.488;8.480;2023-04-25T08:58:43;16.50;;;6.40;;
41629;SDS011;27322;49.488;8.480;2023-04-25T09:01:10;15.80;;;6.20;;
41629;SDS011;27322;49.488;8.480;2023-04-25T09:03:36;13.27;;;5.85;;
41629;SDS011;27322;49.488;8.480;2023-04-25T09:06:02;16.73;;;6.80;;
41629;SDS011;27322;49.488;8.480;2023-04-25T09:08:28;11.95;;;6.25;;
41629;SDS011;27322;49.488;8.480;2023-04-25T09:31:04;15.15;;;6.43;;
41629;SDS011;27322;49.488;8.480;2023-04-25T09:33:33;14.05;;;6.07;;
41629;SDS011;27322;49.488;8.480;2023-04-25T09:36:03;13.20;;;6.13;;
41629;SDS011;27322;49.488;8.480;2023-04-25T09:38:29;11.10;;;5.53;;
41629;SDS011;27322;49.488;8.480;2023-04-25T09:41:15;11.18;;;5.35;;
41629;SDS011;27322;49.488;8.480;2023-04-25T09:43:48;13.93;;;5.60;;
41629;SDS011;27322;49.488;8.480;2023-04-25T09:46:15;13.15;;;5.47;;
41629;SDS011;27322;49.488;8.480;2023-04-25T09:48:43;12.85;;;4.97;;
41629;SDS011;27322;49.488;8.480;2023-04-25T09:51:14;15.68;;;5.50;;
41629;SDS011;27322;49.488;8.480;2023-04-25T09:53:40;12.63;;;5.45;;
41629;SDS011;27322;49.488;8.480;2023-04-25T09:56:16;13.82;;;5.82;;
41629;SDS011;27322;49.488;8.480;2023-04-25T09:58:44;17.52;;;6.00;;
41629;SDS011;27322;49.488;8.480;2023-04-25T10:01:10;14.70;;;5.60;;
41629;SDS011;27322;49.488;8.480;2023-04-25T10:03:36;12.10;;;5.13;;
41629;SDS011;27322;49.488;8.480;2023-04-25T10:06:11;12.32;;;5.28;;
41629;SDS011;27322;49.488;8.480;2023-04-25T10:08:39;11.70;;;4.63;;
41629;SDS011;27322;49.488;8.480;2023-04-25T10:11:06;11.55;;;4.30;;
41629;SDS011;27322;49.488;8.480;2023-04-25T10:13:33;12.10;;;5.15;;
41629;SDS011;27322;49.488;8.480;2023-04-25T10:16:01;12.48;;;5.95;;
41629;SDS011;27322;49.488;8.480;2023-04-25T10:18:28;12.48;;;4.90;;
41629;SDS011;27322;49.488;8.480;2023-04-25T10:20:55;13.18;;;5.47;;
41629;SDS011;27322;49.488;8.480;2023-04-25T10:23:22;10.30;;;5.25;;
41629;SDS011;27322;49.488;8.480;2023-04-25T10:25:49;11.80;;;5.25;;
41629;SDS011;27322;49.488;8.480;2023-04-25T10:28:17;13.00;;;5.45;;
41629;SDS011;27322;49.488;8.480;2023-04-25T10:30:58;10.68;;;5.13;;
41629;SDS011;27322;49.488;8.480;2023-04-25T10:33:29;11.00;;;4.88;;
41629;SDS011;27322;49.488;8.480;2023-04-25T10:38:41;12.30;;;4.00;;
41629;SDS011;27322;49.488;8.480;2023-04-25T10:41:08;9.75;;;4.13;;
41629;SDS011;27322;49.488;8.480;2023-04-25T10:43:38;8.00;;;3.88;;
41629;SDS011;27322;49.488;8.480;2023-04-25T10:48:57;9.18;;;3.58;;
41629;SDS011;27322;49.488;8.480;2023-04-25T10:53:58;8.73;;;3.50;;
41629;SDS011;27322;49.488;8.480;2023-04-25T11:01:39;7.78;;;2.90;;
41629;SDS011;27322;49.488;8.480;2023-04-25T11:04:06;7.30;;;3.30;;
41629;SDS011;27322;49.488;8.480;2023-04-25T11:09:45;7.28;;;3.08;;
41629;SDS011;27322;49.488;8.480;2023-04-25T11:12:11;8.27;;;3.22;;
41629;SDS011;27322;49.488;8.480;2023-04-25T11:14:38;7.90;;;3.38;;
41629;SDS011;27322;49.488;8.480;2023-04-25T11:17:03;5.72;;;3.00;;
41629;SDS011;27322;49.488;8.480;2023-04-25T11:19:30;7.50;;;3.08;;
41629;SDS011;27322;49.488;8.480;2023-04-25T11:21:57;8.35;;;3.13;;
41629;SDS011;27322;49.488;8.480;2023-04-25T11:24:30;6.43;;;3.00;;
41629;SDS011;27322;49.488;8.480;2023-04-25T11:27:00;6.65;;;3.03;;
41629;SDS011;27322;49.488;8.480;2023-04-25T11:29:29;6.40;;;3.10;;
41629;SDS011;27322;49.488;8.480;2023-04-25T11:31:56;6.85;;;2.92;;
41629;SDS011;27322;49.488;8.480;2023-04-25T11:34:26;8.40;;;3.28;;
41629;SDS011;27322;49.488;8.480;2023-04-25T11:36:58;9.60;;;3.10;;
41629;SDS011;27322;49.488;8.480;2023-04-25T11:39:25;8.25;;;3.03;;
41629;SDS011;27322;49.488;8.480;2023-04-25T11:41:51;7.30;;;3.55;;
41629;SDS011;27322;49.488;8.480;2023-04-25T11:44:18;8.63;;;3.75;;
41629;SDS011;27322;49.488;8.480;2023-04-25T11:46:44;8.45;;;3.42;;
41629;SDS011;27322;49.488;8.480;2023-04-25T11:49:10;10.25;;;3.60;;
41629;SDS011;27322;49.488;8.480;2023-04-25T11:51:39;6.07;;;3.40;;
41629;SDS011;27322;49.488;8.480;2023-04-25T11:54:09;7.80;;;3.40;;
41629;SDS011;27322;49.488;8.480;2023-04-25T11:56:35;10.57;;;3.78;;
41629;SDS011;27322;49.488;8.480;2023-04-25T11:59:02;7.13;;;3.55;;
41629;SDS011;27322;49.488;8.480;2023-04-25T12:01:29;7.50;;;3.83;;
41629;SDS011;27322;49.488;8.480;2023-04-25T12:04:09;7.00;;;3.88;;
41629;SDS011;27322;49.488;8.480;2023-04-25T12:06:40;6.63;;;3.55;;
41629;SDS011;27322;49.488;8.480;2023-04-25T12:09:08;8.20;;;3.67;;
41629;SDS011;27322;49.488;8.480;2023-04-25T12:11:45;8.13;;;3.28;;
41629;SDS011;27322;49.488;8.480;2023-04-25T12:14:12;6.22;;;3.40;;
41629;SDS011;27322;49.488;8.480;2023-04-25T12:16:59;9.35;;;3.03;;
41629;SDS011;27322;49.488;8.480;2023-04-25T12:19:25;5.60;;;2.85;;
41629;SDS011;27322;49.488;8.480;2023-04-25T12:21:57;6.53;;;3.55;;
41629;SDS011;27322;49.488;8.480;2023-04-25T12:24:23;11.02;;;3.78;;
41629;SDS011;27322;49.488;8.480;2023-04-25T12:29:18;6.60;;;3.42;;
41629;SDS011;27322;49.488;8.480;2023-04-25T12:31:45;6.72;;;3.83;;
41629;SDS011;27322;49.488;8.480;2023-04-25T12:34:10;8.25;;;4.50;;
41629;SDS011;27322;49.488;8.480;2023-04-25T12:36:36;7.30;;;4.47;;
41629;SDS011;27322;49.488;8.480;2023-04-25T12:39:02;9.77;;;4.50;;
41629;SDS011;27322;49.488;8.480;2023-04-25T12:41:29;10.65;;;4.82;;
41629;SDS011;27322;49.488;8.480;2023-04-25T12:43:55;9.75;;;5.20;;
41629;SDS011;27322;49.488;8.480;2023-04-25T12:46:20;9.20;;;4.70;;
41629;SDS011;27322;49.488;8.480;2023-04-25T12:48:47;9.77;;;4.45;;
41629;SDS011;27322;49.488;8.480;2023-04-25T12:51:13;10.40;;;4.75;;
41629;SDS011;27322;49.488;8.480;2023-04-25T12:53:39;8.10;;;3.92;;
41629;SDS011;27322;49.488;8.480;2023-04-25T12:56:06;10.43;;;4.43;;
41629;SDS011;27322;49.488;8.480;2023-04-25T12:58:32;9.75;;;4.70;;
41629;SDS011;27322;49.488;8.480;2023-04-25T13:00:58;8.40;;;4.45;;
41629;SDS011;27322;49.488;8.480;2023-04-25T13:03:24;11.02;;;4.70;;
41629;SDS011;27322;49.488;8.480;2023-04-25T13:05:50;11.57;;;5.00;;
41629;SDS011;27322;49.488;8.480;2023-04-25T13:08:17;10.05;;;4.53;;
41629;SDS011;27322;49.488;8.480;2023-04-25T13:10:43;12.32;;;4.65;;
41629;SDS011;27322;49.488;8.480;2023-04-25T13:13:09;10.15;;;4.93;;
41629;SDS011;27322;49.488;8.480;2023-04-25T13:15:35;10.48;;;4.50;;
41629;SDS011;27322;49.488;8.480;2023-04-25T13:18:01;11.45;;;4.72;;
41629;SDS011;27322;49.488;8.480;2023-04-25T13:20:28;10.85;;;4.50;;
41629;SDS011;27322;49.488;8.480;2023-04-25T13:22:53;8.20;;;4.07;;
41629;SDS011;27322;49.488;8.480;2023-04-25T13:25:20;9.20;;;3.80;;
41629;SDS011;27322;49.488;8.480;2023-04-25T13:27:46;7.63;;;3.90;;
41629;SDS011;27322;49.488;8.480;2023-04-25T13:30:12;9.75;;;4.15;;
41629;SDS011;27322;49.488;8.480;2023-04-25T13:32:39;7.43;;;4.05;;
41629;SDS011;27322;49.488;8.480;2023-04-25T13:35:05;9.98;;;4.07;;
41629;SDS011;27322;49.488;8.480;2023-04-25T13:37:33;7.28;;;4.18;;
41629;SDS011;27322;49.488;8.480;2023-04-25T13:39:59;11.05;;;4.07;;
41629;SDS011;27322;49.488;8.480;2023-04-25T13:42:25;12.07;;;4.45;;
41629;SDS011;27322;49.488;8.480;2023-04-25T13:44:51;10.48;;;4.55;;
41629;SDS011;27322;49.488;8.480;2023-04-25T13:47:16;8.55;;;4.15;;
41629;SDS011;27322;49.488;8.480;2023-04-25T13:49:42;10.20;;;4.30;;
41629;SDS011;27322;49.488;8.480;2023-04-25T13:52:07;10.02;;;4.95;;
41629;SDS011;27322;49.488;8.480;2023-04-25T13:54:33;10.10;;;4.72;;
41629;SDS011;27322;49.488;8.480;2023-04-25T13:56:59;11.30;;;5.45;;
41629;SDS011;27322;49.488;8.480;2023-04-25T13:59:25;9.77;;;4.55;;
41629;SDS011;27322;49.488;8.480;2023-04-25T14:01:50;10.88;;;4.50;;
41629;SDS011;27322;49.488;8.480;2023-04-25T14:04:16;10.82;;;4.22;;
41629;SDS011;27322;49.488;8.480;2023-04-25T14:06:42;9.75;;;4.32;;
41629;SDS011;27322;49.488;8.480;2023-04-25T14:09:08;10.57;;;4.50;;
41629;SDS011;27322;49.488;8.480;2023-04-25T14:11:35;12.77;;;4.90;;
41629;SDS011;27322;49.488;8.480;2023-04-25T14:14:01;11.57;;;4.30;;
41629;SDS011;27322;49.488;8.480;2023-04-25T14:16:30;10.60;;;4.60;;
41629;SDS011;27322;49.488;8.480;2023-04-25T14:18:59;9.00;;;3.60;;
41629;SDS011;27322;49.488;8.480;2023-04-25T14:21:25;11.50;;;3.88;;
41629;SDS011;27322;49.488;8.480;2023-04-25T14:23:51;9.93;;;4.20;;
41629;SDS011;27322;49.488;8.480;2023-04-25T14:26:17;8.57;;;4.10;;
41629;SDS011;27322;49.488;8.480;2023-04-25T14:28:43;8.10;;;3.78;;
41629;SDS011;27322;49.488;8.480;2023-04-25T14:31:09;7.28;;;3.60;;
41629;SDS011;27322;49.488;8.480;2023-04-25T14:33:34;9.50;;;3.40;;
41629;SDS011;27322;49.488;8.480;2023-04-25T14:36:00;9.07;;;3.72;;
41629;SDS011;27322;49.488;8.480;2023-04-25T14:38:26;9.55;;;4.00;;
41629;SDS011;27322;49.488;8.480;2023-04-25T14:40:51;8.93;;;3.67;;
41629;SDS011;27322;49.488;8.480;2023-04-25T14:43:18;8.23;;;3.30;;
41629;SDS011;27322;49.488;8.480;2023-04-25T14:45:44;7.32;;;3.80;;
41629;SDS011;27322;49.488;8.480;2023-04-25T14:48:10;8.40;;;3.65;;
41629;SDS011;27322;49.488;8.480;2023-04-25T14:50:35;8.95;;;3.42;;
41629;SDS011;27322;49.488;8.480;2023-04-25T14:53:01;8.30;;;3.30;;
41629;SDS011;27322;49.488;8.480;2023-04-25T14:55:27;7.68;;;3.22;;
41629;SDS011;27322;49.488;8.480;2023-04-25T14:57:55;9.75;;;3.65;;
41629;SDS011;27322;49.488;8.480;2023-04-25T15:00:21;8.77;;;3.30;;
41629;SDS011;27322;49.488;8.480;2023-04-25T15:02:50;7.57;;;3.15;;
41629;SDS011;27322;49.488;8.480;2023-04-25T15:05:16;8.98;;;3.75;;
41629;SDS011;27322;49.488;8.480;2023-04-25T15:07:42;7.05;;;3.22;;
41629;SDS011;27322;49.488;8.480;2023-04-25T15:10:08;11.93;;;3.30;;
41629;SDS011;27322;49.488;8.480;2023-04-25T15:12:39;9.35;;;3.60;;
41629;SDS011;27322;49.488;8.480;2023-04-25T15:15:05;8.32;;;3.13;;